Aérodrome :
LOGIN :

S'inscrire | Disclaimer

   EN    FR    IT 

 










Légende :    VFR   VFR Marginal   IFR   IFR Intensif   IFR Très Intensif
Visi : 
Plafond : 
>= 8 km
>= 3000ft
5 à 8 km
1000 à 3000 ft
1500m à 5 km
500 à 1000 ft
800 à 1500m
200 à 500 ft
< 800m
< 200 ft
Symboles :   Orages  Brouillard  Fortes neiges  Fortes précipitations  Vent > 20 kt
SIGMETs :   Divers  Orages  Givrage  Turbulence  Onde Orograph.  Cendres Volcan.







- Altitude de l'aérodrome : 135 ft
- Code IATA : EDI
- Voir les cartes d'approche


EGPH - Edinburgh

DERNIER METAR :
  • 211920Z 04007KT CAVOK 14/12 Q1008

METARs EXPIRÉS :
  • 211850Z 06008KT CAVOK 14/12 Q1008
  • 211820Z 05008KT CAVOK 15/12 Q1008
  • 211750Z 03009KT CAVOK 16/13 Q1008
  • 211720Z 06010KT CAVOK 17/13 Q1008
  • 211650Z 04006KT 350V080 CAVOK 18/13 Q1008
  • 211620Z 07011KT CAVOK 19/13 Q1008

TAF TAF EGPH
Valide du 21 à 18h jusqu'au 22 à 18h UTC


211703Z 2118/2218 04008KT CAVOK
TEMPO 2122/2210 7000
PROB30
TEMPO 2202/2208 3000 BR MIFG
BECMG 2211/2214 SCT004 BKN045
PROB30
TEMPO 2214/2218 5000 RA SHRA BKN004
ATIS : +44 131 339 2823
Pas de NOTAMs connus pour ce terrain.



MET'MAP, la Météo Aéronautique d'un coup d'oeil ! - Copyright ORBIFLY Décembre 2007 - Disclaimer

ORBIFLY MET'MAP TEAM :

Programmation & Développement : Alexandra Zaïnal
Conception & Développement : Baudouin d'Aumeries
Co-Programmation & Développement : Marc-Olivier Méhu
Soutien technique & logistique : Manuel Goepfert

Contact : metmap@orbifly.com




SOURCES & CREDITS :

   NOAA